GBYD

Banjul International Airport

Banjul, Gambia
METAR GBYD 231400Z 25008KT CAVOK 31/19 Q1011
Observed Flight Rules
May-23 @ 14:00 UTC (an hour ago) Visual Flight Rules
Wind Visibility Clouds
250° at 8 knots 10,000+ meters
  • Clear skies
Temperatures Readings
Current 31°C / 88°F
Dewpoint 19°C / 66°F
Humidity 49%
Altimeter 29.85" Hg
Pressure 1011 hPa
Elevation 36
METAR GBYD 231400Z 25008KT CAVOK 31/19 Q1011
Observed Flight Rules
May-23 @ 14:00 UTC
(an hour ago)
VFR
Wind Visibility
250° at 8 knots 10,000+ meters
Clouds
  • Clear skies
Temperature Dewpoint
31°C / 88°F 19°C / 66°F
Humidity Altimeter Pressure
49% 29.85" Hg 1011 hPa